Archival Weather

Longyear

Longyear, Svalbard (ENSB)

Report from: Wednesday, December 6, 2023 6:20 AM UTC
Current time: Saturday, March 2, 2024 10:07 AM UTC

Current weather – Weather history – Daily summaries
Weather forecast

Temperature-5.0°C (23.0°F)
Wind chill-12.4°C (9.6°F)
Dew point-10.0°C (14.0°F)
Winds 14 kts (7.2 m/s, 16.1 mph) East-Southeast (120°)
Visibility6.2 mi. (10 km)
Clouds Few clouds 1,500 ft. (457 m)
Altimeter30.59 in.Hg (1036 mB)
Relative humidity68 %
Density altitude-3,198 ft. (-975 m)
Flight conditions Visual Meteorological Conditions
Raw dataENSB 060620Z 12014KT 9999 FEW015 M05/M10 Q1036 RMK WIND 1400FT 11019KT
An error has occurred. This application may no longer respond until reloaded. Reload 🗙